sensor_id;sensor_type;location;lat;lon;timestamp;pressure;altitude;pressure_sealevel;temperature;humidity
62544;BME280;48597;49.030;1.822;2023-11-19T00:01:34;100679.97;;;20.23;53.38
62544;BME280;48597;49.030;1.822;2023-11-19T00:03:59;100677.94;;;20.24;53.50
62544;BME280;48597;49.030;1.822;2023-11-19T00:06:25;100681.91;;;20.26;53.34
62544;BME280;48597;49.030;1.822;2023-11-19T00:08:50;100682.72;;;20.27;53.50
62544;BME280;48597;49.030;1.822;2023-11-19T00:11:16;100683.41;;;20.31;53.41
62544;BME280;48597;49.030;1.822;2023-11-19T00:13:41;100681.00;;;20.29;53.28
62544;BME280;48597;49.030;1.822;2023-11-19T00:16:07;100686.28;;;20.31;53.33
62544;BME280;48597;49.030;1.822;2023-11-19T00:18:34;100680.88;;;20.33;53.29
62544;BME280;48597;49.030;1.822;2023-11-19T00:21:00;100682.94;;;20.32;53.48
62544;BME280;48597;49.030;1.822;2023-11-19T00:23:27;100677.16;;;20.36;53.19
62544;BME280;48597;49.030;1.822;2023-11-19T00:25:52;100677.50;;;20.38;53.25
62544;BME280;48597;49.030;1.822;2023-11-19T00:28:18;100681.13;;;20.39;53.30
62544;BME280;48597;49.030;1.822;2023-11-19T00:30:43;100677.50;;;20.38;53.23
62544;BME280;48597;49.030;1.822;2023-11-19T00:33:08;100679.06;;;20.39;53.28
62544;BME280;48597;49.030;1.822;2023-11-19T00:35:34;100672.88;;;20.41;53.29
62544;BME280;48597;49.030;1.822;2023-11-19T00:37:59;100665.56;;;20.40;53.28
62544;BME280;48597;49.030;1.822;2023-11-19T00:40:25;100672.88;;;20.41;53.24
62544;BME280;48597;49.030;1.822;2023-11-19T00:42:51;100675.28;;;20.42;53.26
62544;BME280;48597;49.030;1.822;2023-11-19T00:45:16;100672.44;;;20.42;53.06
62544;BME280;48597;49.030;1.822;2023-11-19T00:47:41;100667.06;;;20.44;52.99
62544;BME280;48597;49.030;1.822;2023-11-19T00:50:07;100674.72;;;20.47;52.98
62544;BME280;48597;49.030;1.822;2023-11-19T00:52:36;100674.72;;;20.47;53.00
62544;BME280;48597;49.030;1.822;2023-11-19T00:55:03;100682.50;;;20.47;53.08
62544;BME280;48597;49.030;1.822;2023-11-19T00:57:30;100673.94;;;20.47;53.01
62544;BME280;48597;49.030;1.822;2023-11-19T00:59:55;100671.88;;;20.47;53.10
62544;BME280;48597;49.030;1.822;2023-11-19T01:02:20;100672.22;;;20.49;53.07
62544;BME280;48597;49.030;1.822;2023-11-19T01:04:46;100670.94;;;20.50;52.99
62544;BME280;48597;49.030;1.822;2023-11-19T01:07:11;100670.94;;;20.50;52.85
62544;BME280;48597;49.030;1.822;2023-11-19T01:09:38;100672.22;;;20.49;52.98
62544;BME280;48597;49.030;1.822;2023-11-19T01:12:03;100675.06;;;20.49;52.95
62544;BME280;48597;49.030;1.822;2023-11-19T01:14:29;100673.00;;;20.50;53.18
62544;BME280;48597;49.030;1.822;2023-11-19T01:16:55;100672.88;;;20.53;52.96
62544;BME280;48597;49.030;1.822;2023-11-19T01:19:23;100680.19;;;20.54;52.95
62544;BME280;48597;49.030;1.822;2023-11-19T01:21:50;100681.47;;;20.53;52.98
62544;BME280;48597;49.030;1.822;2023-11-19T01:24:16;100691.31;;;20.52;52.81
62544;BME280;48597;49.030;1.822;2023-11-19T01:26:42;100685.47;;;20.56;53.05
62544;BME280;48597;49.030;1.822;2023-11-19T01:29:14;100681.00;;;20.55;53.04
62544;BME280;48597;49.030;1.822;2023-11-19T01:31:43;100683.06;;;20.54;52.98
62544;BME280;48597;49.030;1.822;2023-11-19T01:34:10;100681.34;;;20.57;52.87
62544;BME280;48597;49.030;1.822;2023-11-19T01:36:35;100688.69;;;20.58;52.88
62544;BME280;48597;49.030;1.822;2023-11-19T01:39:00;100691.19;;;20.56;53.12
62544;BME280;48597;49.030;1.822;2023-11-19T01:41:26;100696.00;;;20.59;52.83
62544;BME280;48597;49.030;1.822;2023-11-19T01:43:51;100690.28;;;20.59;52.64
62544;BME280;48597;49.030;1.822;2023-11-19T01:46:17;100678.84;;;20.59;52.89
62544;BME280;48597;49.030;1.822;2023-11-19T01:48:45;100677.56;;;20.60;52.75
62544;BME280;48597;49.030;1.822;2023-11-19T01:51:14;100682.03;;;20.61;52.91
62544;BME280;48597;49.030;1.822;2023-11-19T01:53:45;100675.50;;;20.60;52.60
62544;BME280;48597;49.030;1.822;2023-11-19T01:56:13;100675.50;;;20.60;52.74
62544;BME280;48597;49.030;1.822;2023-11-19T01:58:40;100680.44;;;20.60;52.66
62544;BME280;48597;49.030;1.822;2023-11-19T02:01:07;100667.72;;;20.61;52.66
62544;BME280;48597;49.030;1.822;2023-11-19T02:03:33;100662.34;;;20.63;52.76
62544;BME280;48597;49.030;1.822;2023-11-19T02:05:59;100662.34;;;20.63;52.70
62544;BME280;48597;49.030;1.822;2023-11-19T02:08:25;100664.84;;;20.61;52.57
62544;BME280;48597;49.030;1.822;2023-11-19T02:10:51;100669.66;;;20.64;52.82
62544;BME280;48597;49.030;1.822;2023-11-19T02:13:17;100671.25;;;20.65;52.57
62544;BME280;48597;49.030;1.822;2023-11-19T02:15:43;100670.13;;;20.62;52.62
62544;BME280;48597;49.030;1.822;2023-11-19T02:18:25;100666.47;;;20.62;52.87
62544;BME280;48597;49.030;1.822;2023-11-19T02:20:53;100666.47;;;20.62;52.85
62544;BME280;48597;49.030;1.822;2023-11-19T02:23:20;100662.34;;;20.63;52.53
62544;BME280;48597;49.030;1.822;2023-11-19T02:28:31;100657.88;;;20.62;52.78
62544;BME280;48597;49.030;1.822;2023-11-19T02:30:58;100660.28;;;20.63;52.70
62544;BME280;48597;49.030;1.822;2023-11-19T02:33:23;100662.34;;;20.63;52.66
62544;BME280;48597;49.030;1.822;2023-11-19T02:35:50;100664.41;;;20.62;52.74
62544;BME280;48597;49.030;1.822;2023-11-19T02:38:16;100657.41;;;20.63;52.72
62544;BME280;48597;49.030;1.822;2023-11-19T02:40:42;100656.63;;;20.63;52.93
62544;BME280;48597;49.030;1.822;2023-11-19T02:43:07;100663.94;;;20.64;52.58
62544;BME280;48597;49.030;1.822;2023-11-19T02:45:33;100664.72;;;20.64;52.69
62544;BME280;48597;49.030;1.822;2023-11-19T02:47:59;100661.53;;;20.62;52.96
62544;BME280;48597;49.030;1.822;2023-11-19T02:50:26;100660.75;;;20.62;52.83
62544;BME280;48597;49.030;1.822;2023-11-19T02:52:54;100673.78;;;20.63;52.90
62544;BME280;48597;49.030;1.822;2023-11-19T02:55:23;100670.13;;;20.62;52.74
62544;BME280;48597;49.030;1.822;2023-11-19T02:57:50;100670.44;;;20.64;52.56
62544;BME280;48597;49.030;1.822;2023-11-19T03:00:20;100667.13;;;20.66;52.89
62544;BME280;48597;49.030;1.822;2023-11-19T03:02:51;100671.25;;;20.65;52.64
62544;BME280;48597;49.030;1.822;2023-11-19T03:05:25;100671.59;;;20.67;52.50
62544;BME280;48597;49.030;1.822;2023-11-19T03:07:51;100656.47;;;20.66;52.84
62544;BME280;48597;49.030;1.822;2023-11-19T03:10:17;100652.34;;;20.67;52.59
62544;BME280;48597;49.030;1.822;2023-11-19T03:12:43;100661.41;;;20.66;52.81
62544;BME280;48597;49.030;1.822;2023-11-19T03:15:09;100658.06;;;20.67;52.84
62544;BME280;48597;49.030;1.822;2023-11-19T03:17:39;100661.28;;;20.69;52.60
62544;BME280;48597;49.030;1.822;2023-11-19T03:20:06;100656.81;;;20.68;52.79
62544;BME280;48597;49.030;1.822;2023-11-19T03:22:32;100655.22;;;20.67;52.78
62544;BME280;48597;49.030;1.822;2023-11-19T03:24:59;100666.66;;;20.67;52.80
62544;BME280;48597;49.030;1.822;2023-11-19T03:27:24;100661.41;;;20.66;52.77
62544;BME280;48597;49.030;1.822;2023-11-19T03:29:50;100650.75;;;20.66;52.76
62544;BME280;48597;49.030;1.822;2023-11-19T03:32:15;100656.00;;;20.68;52.66
62544;BME280;48597;49.030;1.822;2023-11-19T03:34:41;100656.00;;;20.68;52.59
62544;BME280;48597;49.030;1.822;2023-11-19T03:37:06;100648.69;;;20.67;52.54
62544;BME280;48597;49.030;1.822;2023-11-19T03:39:31;100652.00;;;20.65;52.75
62544;BME280;48597;49.030;1.822;2023-11-19T03:41:57;100649.94;;;20.66;52.86
62544;BME280;48597;49.030;1.822;2023-11-19T03:44:22;100656.94;;;20.65;52.88
62544;BME280;48597;49.030;1.822;2023-11-19T03:46:47;100650.41;;;20.64;52.70
62544;BME280;48597;49.030;1.822;2023-11-19T03:49:13;100644.66;;;20.64;52.73
62544;BME280;48597;49.030;1.822;2023-11-19T03:51:38;100645.16;;;20.63;52.57
62544;BME280;48597;49.030;1.822;2023-11-19T03:54:03;100645.47;;;20.65;52.79
62544;BME280;48597;49.030;1.822;2023-11-19T03:56:29;100653.75;;;20.63;52.76
62544;BME280;48597;49.030;1.822;2023-11-19T03:58:56;100655.81;;;20.62;52.62
62544;BME280;48597;49.030;1.822;2023-11-19T04:01:21;100655.47;;;20.60;52.77
62544;BME280;48597;49.030;1.822;2023-11-19T04:03:46;100651.81;;;20.60;52.86
62544;BME280;48597;49.030;1.822;2023-11-19T04:06:12;100646.06;;;20.60;52.85
62544;BME280;48597;49.030;1.822;2023-11-19T04:08:37;100644.13;;;20.57;52.80
62544;BME280;48597;49.030;1.822;2023-11-19T04:11:04;100645.38;;;20.56;52.95
62544;BME280;48597;49.030;1.822;2023-11-19T04:13:29;100649.50;;;20.55;52.96
62544;BME280;48597;49.030;1.822;2023-11-19T04:15:54;100642.97;;;20.54;52.85
62544;BME280;48597;49.030;1.822;2023-11-19T04:18:20;100640.56;;;20.53;52.65
62544;BME280;48597;49.030;1.822;2023-11-19T04:20:45;100643.13;;;20.51;53.07
62544;BME280;48597;49.030;1.822;2023-11-19T04:23:11;100649.31;;;20.49;52.86
62544;BME280;48597;49.030;1.822;2023-11-19T04:25:36;100646.91;;;20.48;52.95
62544;BME280;48597;49.030;1.822;2023-11-19T04:28:02;100645.28;;;20.47;52.92
62544;BME280;48597;49.030;1.822;2023-11-19T04:30:28;100646.56;;;20.46;52.93
62544;BME280;48597;49.030;1.822;2023-11-19T04:32:53;100656.41;;;20.45;53.06
62544;BME280;48597;49.030;1.822;2023-11-19T04:35:18;100654.00;;;20.43;52.96
62544;BME280;48597;49.030;1.822;2023-11-19T04:37:44;100663.84;;;20.42;52.88
62544;BME280;48597;49.030;1.822;2023-11-19T04:40:10;100664.31;;;20.41;53.02
62544;BME280;48597;49.030;1.822;2023-11-19T04:42:37;100670.47;;;20.39;53.07
62544;BME280;48597;49.030;1.822;2023-11-19T04:45:06;100678.75;;;20.37;53.10
62544;BME280;48597;49.030;1.822;2023-11-19T04:47:32;100692.25;;;20.37;52.93
62544;BME280;48597;49.030;1.822;2023-11-19T04:49:57;100683.28;;;20.34;53.00
62544;BME280;48597;49.030;1.822;2023-11-19T04:52:23;100683.28;;;20.34;52.96
62544;BME280;48597;49.030;1.822;2023-11-19T04:54:48;100682.94;;;20.32;53.09
62544;BME280;48597;49.030;1.822;2023-11-19T04:57:13;100682.59;;;20.30;53.07
62544;BME280;48597;49.030;1.822;2023-11-19T04:59:39;100679.41;;;20.28;53.24
62544;BME280;48597;49.030;1.822;2023-11-19T05:02:05;100679.84;;;20.27;53.01
62544;BME280;48597;49.030;1.822;2023-11-19T05:04:31;100679.84;;;20.27;53.16
62544;BME280;48597;49.030;1.822;2023-11-19T05:06:56;100688.13;;;20.25;53.08
62544;BME280;48597;49.030;1.822;2023-11-19T05:09:21;100682.84;;;20.23;53.13
62544;BME280;48597;49.030;1.822;2023-11-19T05:11:47;100685.72;;;20.23;53.33
62544;BME280;48597;49.030;1.822;2023-11-19T05:14:13;100684.91;;;20.23;53.19
62544;BME280;48597;49.030;1.822;2023-11-19T05:16:39;100686.16;;;20.22;52.95
62544;BME280;48597;49.030;1.822;2023-11-19T05:19:05;100682.16;;;20.19;53.31
62544;BME280;48597;49.030;1.822;2023-11-19T05:21:30;100685.00;;;20.19;53.23
62544;BME280;48597;49.030;1.822;2023-11-19T05:23:56;100695.66;;;20.19;53.28
62544;BME280;48597;49.030;1.822;2023-11-19T05:26:23;100692.44;;;20.17;53.14
62544;BME280;48597;49.030;1.822;2023-11-19T05:28:49;100686.72;;;20.17;53.04
62544;BME280;48597;49.030;1.822;2023-11-19T05:31:16;100692.44;;;20.17;53.15
62544;BME280;48597;49.030;1.822;2023-11-19T05:33:42;100690.03;;;20.15;53.14
62544;BME280;48597;49.030;1.822;2023-11-19T05:36:08;100694.97;;;20.15;53.01
62544;BME280;48597;49.030;1.822;2023-11-19T05:38:35;100693.34;;;20.14;53.11
62544;BME280;48597;49.030;1.822;2023-11-19T05:41:00;100681.09;;;20.13;52.94
62544;BME280;48597;49.030;1.822;2023-11-19T05:43:25;100683.16;;;20.13;53.16
62544;BME280;48597;49.030;1.822;2023-11-19T05:45:51;100690.19;;;20.12;53.16
62544;BME280;48597;49.030;1.822;2023-11-19T05:48:16;100686.50;;;20.11;52.89
62544;BME280;48597;49.030;1.822;2023-11-19T05:50:42;100692.69;;;20.10;53.10
62544;BME280;48597;49.030;1.822;2023-11-19T05:53:07;100691.09;;;20.09;52.84
62544;BME280;48597;49.030;1.822;2023-11-19T05:55:36;100696.81;;;20.09;53.18
62544;BME280;48597;49.030;1.822;2023-11-19T05:58:02;100697.25;;;20.07;53.09
62544;BME280;48597;49.030;1.822;2023-11-19T06:00:29;100700.13;;;20.07;53.07
62544;BME280;48597;49.030;1.822;2023-11-19T06:02:55;100695.66;;;20.06;53.08
62544;BME280;48597;49.030;1.822;2023-11-19T06:05:21;100701.03;;;20.04;53.07
62544;BME280;48597;49.030;1.822;2023-11-19T06:07:46;100696.56;;;20.03;52.94
62544;BME280;48597;49.030;1.822;2023-11-19T06:10:12;100699.41;;;20.03;52.99
62544;BME280;48597;49.030;1.822;2023-11-19T06:12:39;100707.19;;;20.03;53.00
62544;BME280;48597;49.030;1.822;2023-11-19T06:15:07;100692.88;;;20.03;52.99
62544;BME280;48597;49.030;1.822;2023-11-19T06:17:33;100697.81;;;20.02;53.07
62544;BME280;48597;49.030;1.822;2023-11-19T06:19:59;100701.94;;;20.01;53.04
62544;BME280;48597;49.030;1.822;2023-11-19T06:22:24;100710.97;;;19.99;53.22
62544;BME280;48597;49.030;1.822;2023-11-19T06:24:49;100710.97;;;19.99;53.00
62544;BME280;48597;49.030;1.822;2023-11-19T06:27:15;100720.03;;;19.98;53.03
62544;BME280;48597;49.030;1.822;2023-11-19T06:29:40;100717.16;;;19.98;53.17
62544;BME280;48597;49.030;1.822;2023-11-19T06:32:06;100713.50;;;19.97;53.07
62544;BME280;48597;49.030;1.822;2023-11-19T06:34:33;100712.69;;;19.97;53.05
62544;BME280;48597;49.030;1.822;2023-11-19T06:36:58;100716.81;;;19.96;53.14
62544;BME280;48597;49.030;1.822;2023-11-19T06:39:24;100717.63;;;19.96;53.01
62544;BME280;48597;49.030;1.822;2023-11-19T06:41:50;100718.88;;;19.95;53.00
62544;BME280;48597;49.030;1.822;2023-11-19T06:44:15;100719.22;;;19.97;53.05
62544;BME280;48597;49.030;1.822;2023-11-19T06:46:41;100725.75;;;19.98;53.17
62544;BME280;48597;49.030;1.822;2023-11-19T06:49:06;100714.31;;;19.98;53.24
62544;BME280;48597;49.030;1.822;2023-11-19T06:51:33;100719.09;;;20.01;53.26
62544;BME280;48597;49.030;1.822;2023-11-19T06:53:59;100716.22;;;20.01;53.11
62544;BME280;48597;49.030;1.822;2023-11-19T06:56:25;100725.63;;;20.02;53.31
62544;BME280;48597;49.030;1.822;2023-11-19T06:58:51;100728.84;;;20.04;53.05
62544;BME280;48597;49.030;1.822;2023-11-19T07:01:17;100725.97;;;20.04;53.02
62544;BME280;48597;49.030;1.822;2023-11-19T07:03:45;100730.00;;;20.06;53.22
62544;BME280;48597;49.030;1.822;2023-11-19T07:06:11;100739.38;;;20.07;53.14
62544;BME280;48597;49.030;1.822;2023-11-19T07:08:41;100738.56;;;20.06;53.15
62544;BME280;48597;49.030;1.822;2023-11-19T07:11:06;100750.00;;;20.06;53.40
62544;BME280;48597;49.030;1.822;2023-11-19T07:13:35;100748.75;;;20.07;53.24
62544;BME280;48597;49.030;1.822;2023-11-19T07:16:00;100747.50;;;20.08;53.53
62544;BME280;48597;49.030;1.822;2023-11-19T07:18:25;100738.13;;;20.08;53.20
62544;BME280;48597;49.030;1.822;2023-11-19T07:20:51;100747.50;;;20.08;53.31
62544;BME280;48597;49.030;1.822;2023-11-19T07:23:17;100742.22;;;20.07;53.47
62544;BME280;48597;49.030;1.822;2023-11-19T07:25:43;100748.75;;;20.07;53.45
62544;BME280;48597;49.030;1.822;2023-11-19T07:28:12;100750.00;;;20.06;53.20
62544;BME280;48597;49.030;1.822;2023-11-19T07:30:38;100749.22;;;20.06;53.34
62544;BME280;48597;49.030;1.822;2023-11-19T07:33:03;100750.00;;;20.06;53.47
62544;BME280;48597;49.030;1.822;2023-11-19T07:35:29;100750.00;;;20.06;53.25
62544;BME280;48597;49.030;1.822;2023-11-19T07:37:56;100759.41;;;20.07;53.23
62544;BME280;48597;49.030;1.822;2023-11-19T07:40:21;100749.22;;;20.06;53.27
62544;BME280;48597;49.030;1.822;2023-11-19T07:42:47;100750.00;;;20.06;53.32
62544;BME280;48597;49.030;1.822;2023-11-19T07:45:12;100745.09;;;20.07;53.20
62544;BME280;48597;49.030;1.822;2023-11-19T07:47:37;100747.50;;;20.08;53.21
62544;BME280;48597;49.030;1.822;2023-11-19T07:50:03;100744.66;;;20.08;53.29
62544;BME280;48597;49.030;1.822;2023-11-19T07:52:29;100737.66;;;20.09;53.18
62544;BME280;48597;49.030;1.822;2023-11-19T07:54:54;100739.72;;;20.09;53.39
62544;BME280;48597;49.030;1.822;2023-11-19T07:57:20;100748.31;;;20.09;53.32
62544;BME280;48597;49.030;1.822;2023-11-19T07:59:46;100740.53;;;20.09;53.22
62544;BME280;48597;49.030;1.822;2023-11-19T08:02:12;100745.00;;;20.10;53.18
62544;BME280;48597;49.030;1.822;2023-11-19T08:04:37;100753.13;;;20.12;53.19
62544;BME280;48597;49.030;1.822;2023-11-19T08:07:05;100745.34;;;20.12;53.20
62544;BME280;48597;49.030;1.822;2023-11-19T08:09:30;100753.94;;;20.12;53.34
62544;BME280;48597;49.030;1.822;2023-11-19T08:11:56;100758.38;;;20.13;53.32
62544;BME280;48597;49.030;1.822;2023-11-19T08:14:21;100770.16;;;20.15;53.29
62544;BME280;48597;49.030;1.822;2023-11-19T08:16:46;100763.63;;;20.15;53.46
62544;BME280;48597;49.030;1.822;2023-11-19T08:19:12;100762.38;;;20.16;53.33
62544;BME280;48597;49.030;1.822;2023-11-19T08:21:37;100762.72;;;20.18;53.37
62544;BME280;48597;49.030;1.822;2023-11-19T08:24:03;100770.88;;;20.19;53.44
62544;BME280;48597;49.030;1.822;2023-11-19T08:26:29;100763.09;;;20.20;53.21
62544;BME280;48597;49.030;1.822;2023-11-19T08:28:54;100762.28;;;20.19;53.55
62544;BME280;48597;49.030;1.822;2023-11-19T08:31:19;100777.28;;;20.23;53.11
62544;BME280;48597;49.030;1.822;2023-11-19T08:33:45;100776.03;;;20.24;53.23
62544;BME280;48597;49.030;1.822;2023-11-19T08:36:16;100771.13;;;20.25;53.04
62544;BME280;48597;49.030;1.822;2023-11-19T08:38:42;100773.19;;;20.24;53.31
62544;BME280;48597;49.030;1.822;2023-11-19T08:41:07;100772.69;;;20.26;53.06
62544;BME280;48597;49.030;1.822;2023-11-19T08:43:33;100779.72;;;20.25;53.14
62544;BME280;48597;49.030;1.822;2023-11-19T08:45:58;100776.34;;;20.26;53.06
62544;BME280;48597;49.030;1.822;2023-11-19T08:48:23;100778.78;;;20.28;53.20
62544;BME280;48597;49.030;1.822;2023-11-19T08:50:49;100783.69;;;20.27;53.13
62544;BME280;48597;49.030;1.822;2023-11-19T08:53:15;100781.63;;;20.28;53.22
62544;BME280;48597;49.030;1.822;2023-11-19T08:55:40;100787.34;;;20.28;53.04
62544;BME280;48597;49.030;1.822;2023-11-19T08:58:06;100783.69;;;20.27;53.12
62544;BME280;48597;49.030;1.822;2023-11-19T09:00:32;100781.63;;;20.28;52.98
62544;BME280;48597;49.030;1.822;2023-11-19T09:02:57;100775.09;;;20.27;53.01
62544;BME280;48597;49.030;1.822;2023-11-19T09:05:23;100783.69;;;20.27;53.01
62544;BME280;48597;49.030;1.822;2023-11-19T09:07:48;100786.09;;;20.29;53.00
62544;BME280;48597;49.030;1.822;2023-11-19T09:10:15;100792.28;;;20.27;53.07
62544;BME280;48597;49.030;1.822;2023-11-19T09:12:41;100793.88;;;20.28;52.98
62544;BME280;48597;49.030;1.822;2023-11-19T09:15:06;100788.63;;;20.27;52.96
62544;BME280;48597;49.030;1.822;2023-11-19T09:17:32;100791.03;;;20.28;52.86
62544;BME280;48597;49.030;1.822;2023-11-19T09:19:57;100792.72;;;20.26;52.95
62544;BME280;48597;49.030;1.822;2023-11-19T09:22:23;100785.44;;;20.25;53.12
62544;BME280;48597;49.030;1.822;2023-11-19T09:24:48;100790.34;;;20.24;53.05
62544;BME280;48597;49.030;1.822;2023-11-19T09:27:14;100787.13;;;20.22;53.11
62544;BME280;48597;49.030;1.822;2023-11-19T09:29:39;100800.19;;;20.23;53.07
62544;BME280;48597;49.030;1.822;2023-11-19T09:32:05;100790.00;;;20.22;53.02
62544;BME280;48597;49.030;1.822;2023-11-19T09:34:31;100780.25;;;20.20;52.97
62544;BME280;48597;49.030;1.822;2023-11-19T09:36:57;100788.03;;;20.19;53.11
62544;BME280;48597;49.030;1.822;2023-11-19T09:39:22;100782.75;;;20.18;53.08
62544;BME280;48597;49.030;1.822;2023-11-19T09:41:47;100784.81;;;20.17;53.10
62544;BME280;48597;49.030;1.822;2023-11-19T09:44:13;100792.59;;;20.17;53.08
62544;BME280;48597;49.030;1.822;2023-11-19T09:46:41;100784.47;;;20.15;53.20
62544;BME280;48597;49.030;1.822;2023-11-19T09:49:08;100780.81;;;20.15;52.92
62544;BME280;48597;49.030;1.822;2023-11-19T09:51:35;100779.19;;;20.14;52.91
62544;BME280;48597;49.030;1.822;2023-11-19T09:54:01;100773.47;;;20.14;52.94
62544;BME280;48597;49.030;1.822;2023-11-19T09:56:29;100794.75;;;20.13;53.09
62544;BME280;48597;49.030;1.822;2023-11-19T09:58:58;100790.78;;;20.10;53.11
62544;BME280;48597;49.030;1.822;2023-11-19T10:01:24;100790.44;;;20.08;53.25
62544;BME280;48597;49.030;1.822;2023-11-19T10:03:50;100795.34;;;20.08;53.08
62544;BME280;48597;49.030;1.822;2023-11-19T10:06:19;100791.69;;;20.07;53.15
62544;BME280;48597;49.030;1.822;2023-11-19T10:08:44;100788.47;;;20.05;53.22
62544;BME280;48597;49.030;1.822;2023-11-19T10:11:10;100786.84;;;20.04;53.11
62544;BME280;48597;49.030;1.822;2023-11-19T10:13:38;100799.56;;;20.03;53.17
62544;BME280;48597;49.030;1.822;2023-11-19T10:16:12;100793.03;;;20.03;53.03
62544;BME280;48597;49.030;1.822;2023-11-19T10:18:43;100786.97;;;20.01;53.16
62544;BME280;48597;49.030;1.822;2023-11-19T10:21:12;100804.94;;;20.01;52.96
62544;BME280;48597;49.030;1.822;2023-11-19T10:26:13;100799.34;;;19.97;53.23
62544;BME280;48597;49.030;1.822;2023-11-19T10:28:39;100805.06;;;19.97;53.34
62544;BME280;48597;49.030;1.822;2023-11-19T10:31:05;100792.81;;;19.97;53.20
62544;BME280;48597;49.030;1.822;2023-11-19T10:33:31;100792.00;;;19.96;53.26
62544;BME280;48597;49.030;1.822;2023-11-19T10:35:57;100797.38;;;19.94;53.27
62544;BME280;48597;49.030;1.822;2023-11-19T10:38:24;100797.38;;;19.94;53.37
62544;BME280;48597;49.030;1.822;2023-11-19T10:40:50;100790.03;;;19.93;53.44
62544;BME280;48597;49.030;1.822;2023-11-19T10:43:16;100797.81;;;19.93;53.30
62544;BME280;48597;49.030;1.822;2023-11-19T10:45:42;100795.41;;;19.91;53.31
62544;BME280;48597;49.030;1.822;2023-11-19T10:48:08;100790.50;;;19.92;53.54
62544;BME280;48597;49.030;1.822;2023-11-19T10:50:34;100784.41;;;19.90;53.56
62544;BME280;48597;49.030;1.822;2023-11-19T10:53:00;100788.09;;;19.90;53.41
62544;BME280;48597;49.030;1.822;2023-11-19T10:55:27;100783.16;;;19.91;53.34
62544;BME280;48597;49.030;1.822;2023-11-19T10:57:59;100779.94;;;19.89;53.48
62544;BME280;48597;49.030;1.822;2023-11-19T11:03:41;100782.44;;;19.87;53.46
62544;BME280;48597;49.030;1.822;2023-11-19T11:06:09;100775.16;;;19.86;53.53
62544;BME280;48597;49.030;1.822;2023-11-19T11:08:54;100777.22;;;19.85;53.63
62544;BME280;48597;49.030;1.822;2023-11-19T11:11:47;100777.22;;;19.85;53.78
62544;BME280;48597;49.030;1.822;2023-11-19T11:14:13;100771.13;;;19.83;53.90
62544;BME280;48597;49.030;1.822;2023-11-19T11:16:46;100780.53;;;19.84;53.85
62544;BME280;48597;49.030;1.822;2023-11-19T11:19:12;100770.78;;;19.81;53.90
62544;BME280;48597;49.030;1.822;2023-11-19T11:21:40;100788.41;;;19.80;54.26
62544;BME280;48597;49.030;1.822;2023-11-19T11:24:26;100768.38;;;19.80;54.17
62544;BME280;48597;49.030;1.822;2023-11-19T11:32:54;100768.03;;;19.78;54.19
62544;BME280;48597;49.030;1.822;2023-11-19T11:38:22;100764.00;;;19.75;54.23
62544;BME280;48597;49.030;1.822;2023-11-19T11:41:23;100764.00;;;19.75;54.46
62544;BME280;48597;49.030;1.822;2023-11-19T11:43:53;100762.38;;;19.74;54.23
62544;BME280;48597;49.030;1.822;2023-11-19T11:49:01;100770.97;;;19.74;54.33
62544;BME280;48597;49.030;1.822;2023-11-19T11:54:11;100753.50;;;19.72;54.35
62544;BME280;48597;49.030;1.822;2023-11-19T12:02:03;100763.31;;;19.71;54.27
62544;BME280;48597;49.030;1.822;2023-11-19T12:04:29;100766.19;;;19.71;54.35
62544;BME280;48597;49.030;1.822;2023-11-19T12:07:16;100747.41;;;19.70;54.25
62544;BME280;48597;49.030;1.822;2023-11-19T12:09:45;100751.53;;;19.69;54.52
62544;BME280;48597;49.030;1.822;2023-11-19T12:17:41;100747.88;;;19.69;54.58
62544;BME280;48597;49.030;1.822;2023-11-19T12:20:09;100759.31;;;19.69;54.58
62544;BME280;48597;49.030;1.822;2023-11-19T12:22:41;100751.97;;;19.68;54.53
62544;BME280;48597;49.030;1.822;2023-11-19T12:25:08;100754.84;;;19.68;54.49
62544;BME280;48597;49.030;1.822;2023-11-19T12:27:50;100756.09;;;19.67;54.40
62544;BME280;48597;49.030;1.822;2023-11-19T12:30:26;100743.84;;;19.66;54.59
62544;BME280;48597;49.030;1.822;2023-11-19T12:32:52;100748.75;;;19.66;54.57
62544;BME280;48597;49.030;1.822;2023-11-19T12:35:19;100748.75;;;19.66;54.59
62544;BME280;48597;49.030;1.822;2023-11-19T12:37:51;100728.75;;;19.66;54.65
62544;BME280;48597;49.030;1.822;2023-11-19T12:40:19;100737.31;;;19.66;54.66
62544;BME280;48597;49.030;1.822;2023-11-19T12:42:48;100731.59;;;19.66;54.76
62544;BME280;48597;49.030;1.822;2023-11-19T12:45:14;100747.16;;;19.65;54.58
62544;BME280;48597;49.030;1.822;2023-11-19T12:47:41;100733.31;;;19.63;54.67
62544;BME280;48597;49.030;1.822;2023-11-19T12:50:08;100746.34;;;19.64;54.76
62544;BME280;48597;49.030;1.822;2023-11-19T12:52:37;100754.13;;;19.63;54.74
62544;BME280;48597;49.030;1.822;2023-11-19T12:55:30;100749.66;;;19.62;54.59
62544;BME280;48597;49.030;1.822;2023-11-19T12:57:56;100756.19;;;19.63;54.68
62544;BME280;48597;49.030;1.822;2023-11-19T13:00:24;100761.09;;;19.62;54.78
62544;BME280;48597;49.030;1.822;2023-11-19T13:02:52;100767.63;;;19.63;54.71
62544;BME280;48597;49.030;1.822;2023-11-19T13:05:33;100772.53;;;19.62;54.78
62544;BME280;48597;49.030;1.822;2023-11-19T13:08:06;100761.09;;;19.62;54.69
62544;BME280;48597;49.030;1.822;2023-11-19T13:10:34;100767.63;;;19.63;54.82
62544;BME280;48597;49.030;1.822;2023-11-19T13:13:14;100763.97;;;19.62;54.66
62544;BME280;48597;49.030;1.822;2023-11-19T13:15:40;100766.81;;;19.62;54.98
62544;BME280;48597;49.030;1.822;2023-11-19T13:18:05;100768.88;;;19.62;54.84
62544;BME280;48597;49.030;1.822;2023-11-19T13:20:32;100758.25;;;19.62;54.84
62544;BME280;48597;49.030;1.822;2023-11-19T13:22:59;100766.00;;;19.62;54.88